Time;durP1;ratioP1;P1;durP2;ratioP2;P2;SDS_P1;SDS_P2;PMS_P1;PMS_P2;Temp;Humidity;BMP_temperature;BMP_pressure;BME280_temperature;BME280_humidity;BME280_pressure;Samples;Min_cycle;Max_cycle;Signal;HPM_P1;HPM_P2
2023/05/12 00:04:35;;;;;;;87.30;40.63;;;;;;;12.05;90.11;100429.91;10339327;28;20054;-74
2023/05/12 00:09:40;;;;;;;89.13;43.10;;;;;;;12.08;90.43;100433.16;10337457;28;20125;-74
2023/05/12 00:14:43;;;;;;;91.18;43.65;;;;;;;12.16;90.46;100444.13;10339314;28;20038;-74
2023/05/12 00:19:47;;;;;;;76.53;38.60;;;;;;;12.16;90.36;100445.97;10341693;28;20069;-75
2023/05/12 00:24:51;;;;;;;75.80;38.17;;;;;;;12.13;89.90;100455.16;10338891;28;20046;-76
2023/05/12 00:29:54;;;;;;;62.80;35.28;;;;;;;12.05;90.19;100464.91;10338107;28;20069;-76
2023/05/12 00:34:57;;;;;;;65.22;36.97;;;;;;;12.02;89.86;100459.78;10335773;28;20109;-74
2023/05/12 00:40:01;;;;;;;66.60;36.88;;;;;;;12.00;89.86;100470.66;10337971;28;20089;-76
2023/05/12 00:45:06;;;;;;;67.25;37.13;;;;;;;11.95;89.99;100470.22;10342157;28;20084;-75
2023/05/12 00:50:09;;;;;;;64.32;36.17;;;;;;;11.91;89.57;100469.63;10343866;28;20514;-75
2023/05/12 00:55:13;;;;;;;66.50;38.35;;;;;;;11.86;89.78;100465.63;10343660;28;20046;-74
2023/05/12 01:00:17;;;;;;;61.55;36.40;;;;;;;11.82;89.76;100459.66;10343196;28;20501;-74
2023/05/12 01:05:22;;;;;;;58.20;32.30;;;;;;;11.77;89.61;100452.97;10342348;28;20058;-73
2023/05/12 01:10:26;;;;;;;49.05;31.67;;;;;;;11.74;89.50;100454.06;10339660;28;20038;-75
2023/05/12 01:15:32;;;;;;;50.08;30.92;;;;;;;11.67;89.46;100450.19;10340473;28;20050;-75
2023/05/12 01:20:35;;;;;;;51.10;30.15;;;;;;;11.61;89.21;100458.78;10342120;28;20046;-76
2023/05/12 01:25:41;;;;;;;55.25;32.00;;;;;;;11.57;89.34;100462.69;10339359;28;20070;-74
2023/05/12 01:30:45;;;;;;;47.33;29.52;;;;;;;11.52;89.31;100456.84;10339172;28;20182;-75
2023/05/12 01:35:48;;;;;;;48.95;31.48;;;;;;;11.47;89.22;100462.63;10336135;28;20054;-74
2023/05/12 01:40:53;;;;;;;51.10;30.60;;;;;;;11.43;89.44;100464.69;10351979;28;20119;-74
2023/05/12 01:45:57;;;;;;;45.83;29.13;;;;;;;11.40;89.56;100466.78;10350319;28;20110;-74
2023/05/12 01:51:00;;;;;;;43.45;28.15;;;;;;;11.45;89.78;100469.97;10337215;28;20144;-74
2023/05/12 01:56:03;;;;;;;48.30;30.35;;;;;;;11.47;89.67;100473.38;10354593;28;20052;-76
2023/05/12 02:01:09;;;;;;;47.97;30.73;;;;;;;11.44;89.46;100469.13;10342647;28;20050;-74
2023/05/12 02:06:12;;;;;;;54.50;33.03;;;;;;;11.45;89.49;100475.34;10344728;28;20605;-74
2023/05/12 02:11:15;;;;;;;52.05;30.83;;;;;;;11.53;89.76;100477.41;10345596;28;20039;-74
2023/05/12 02:16:20;;;;;;;52.40;32.10;;;;;;;11.56;89.79;100488.75;10345773;28;20172;-74
2023/05/12 02:21:23;;;;;;;56.92;32.03;;;;;;;11.60;89.76;100481.25;10344001;28;20034;-74
2023/05/12 02:26:28;;;;;;;48.40;30.48;;;;;;;11.63;89.74;100483.72;10346352;28;20125;-75
2023/05/12 02:31:32;;;;;;;48.88;29.83;;;;;;;11.62;89.58;100484.69;10348889;28;20049;-74
2023/05/12 02:36:36;;;;;;;46.72;28.70;;;;;;;11.65;89.87;100487.13;10344475;28;20061;-74
2023/05/12 02:41:40;;;;;;;46.63;29.02;;;;;;;11.67;89.87;100488.69;10339965;28;20093;-74
2023/05/12 02:46:44;;;;;;;43.00;27.98;;;;;;;11.66;89.89;100483.47;10345538;28;20046;-73
2023/05/12 02:51:48;;;;;;;40.90;26.42;;;;;;;11.65;89.83;100481.72;10357106;28;20042;-74
2023/05/12 02:56:52;;;;;;;40.95;25.67;;;;;;;11.61;89.64;100483.84;10347043;28;20053;-74
2023/05/12 03:01:56;;;;;;;36.22;24.70;;;;;;;11.61;89.72;100474.91;10366094;28;20038;-74
2023/05/12 03:06:59;;;;;;;38.58;24.83;;;;;;;11.54;89.61;100481.78;10349865;28;20542;-73
2023/05/12 03:12:02;;;;;;;39.20;27.52;;;;;;;11.52;89.56;100483.75;10350989;28;20066;-73
2023/05/12 03:17:06;;;;;;;43.78;28.40;;;;;;;11.43;89.54;100486.22;10347907;28;20053;-74
2023/05/12 03:22:09;;;;;;;42.80;28.00;;;;;;;11.41;89.66;100490.88;10365542;28;20073;-72
2023/05/12 03:27:12;;;;;;;47.08;28.52;;;;;;;11.39;89.67;100489.31;10346819;28;20386;-73
2023/05/12 03:32:17;;;;;;;44.83;27.58;;;;;;;11.37;89.51;100477.81;10342995;28;20046;-76
2023/05/12 03:37:20;;;;;;;48.78;29.85;;;;;;;11.33;89.44;100477.22;10341387;28;20038;-74
2023/05/12 03:42:24;;;;;;;44.80;27.50;;;;;;;11.28;89.37;100477.59;10340008;28;20046;-74
2023/05/12 03:47:28;;;;;;;38.72;26.00;;;;;;;11.30;89.78;100488.25;10355592;28;20052;-73
2023/05/12 03:52:31;;;;;;;43.95;28.38;;;;;;;11.39;90.02;100490.16;10339201;28;20049;-74
2023/05/12 03:57:37;;;;;;;51.60;29.77;;;;;;;11.46;90.06;100496.75;10338483;28;20050;-74
2023/05/12 04:02:41;;;;;;;43.28;26.05;;;;;;;11.51;90.10;100488.28;10338600;28;20049;-74
2023/05/12 04:07:44;;;;;;;51.83;29.10;;;;;;;11.52;89.91;100502.56;10338201;28;20042;-74
2023/05/12 04:12:47;;;;;;;41.50;25.38;;;;;;;11.56;90.09;100504.03;10345633;28;20038;-75
2023/05/12 04:17:52;;;;;;;41.17;25.92;;;;;;;11.57;90.04;100509.28;10340430;28;20989;-74
2023/05/12 04:22:55;;;;;;;40.45;24.25;;;;;;;11.63;90.24;100510.63;10339157;28;20034;-74
2023/05/12 04:27:58;;;;;;;36.10;23.80;;;;;;;11.71;90.37;100516.19;10338234;28;20038;-74
2023/05/12 04:33:03;;;;;;;33.15;23.38;;;;;;;11.80;90.35;100528.91;10353059;28;20409;-74
2023/05/12 04:38:06;;;;;;;34.63;23.67;;;;;;;11.92;90.52;100529.69;10332652;28;20457;-75
2023/05/12 04:43:09;;;;;;;35.42;24.15;;;;;;;11.97;90.53;100535.53;10340059;28;20114;-74
2023/05/12 04:48:34;;;;;;;36.72;23.73;;;;;;;12.01;90.52;100542.38;10338279;28;20105;-74
2023/05/12 04:53:37;;;;;;;37.75;23.33;;;;;;;12.08;90.61;100540.03;10339574;28;20093;-74
2023/05/12 04:58:40;;;;;;;35.67;23.60;;;;;;;12.13;90.34;100544.03;10355187;28;20050;-74
2023/05/12 05:03:45;;;;;;;35.45;23.80;;;;;;;12.15;90.72;100550.16;10342892;28;20053;-74
2023/05/12 05:08:49;;;;;;;35.65;25.02;;;;;;;12.23;90.70;100560.28;10346999;28;20049;-74
2023/05/12 05:13:52;;;;;;;41.42;25.70;;;;;;;12.36;90.93;100573.56;10347765;28;20512;-74
2023/05/12 05:18:57;;;;;;;33.88;22.83;;;;;;;12.49;91.12;100578.75;10348301;28;20141;-73
2023/05/12 05:24:00;;;;;;;37.05;23.10;;;;;;;12.56;90.78;100583.50;10344835;28;20112;-73
2023/05/12 05:29:04;;;;;;;37.60;24.98;;;;;;;12.64;90.80;100588.19;10359448;28;20046;-73
2023/05/12 05:34:10;;;;;;;33.85;23.20;;;;;;;12.67;90.61;100587.97;10344806;28;20030;-73
2023/05/12 05:39:13;;;;;;;38.03;24.13;;;;;;;12.68;90.87;100595.03;10354309;28;20413;-74
2023/05/12 05:44:16;;;;;;;38.08;22.48;;;;;;;12.57;90.47;100601.34;10340777;28;20560;-73
2023/05/12 05:49:21;;;;;;;37.83;24.98;;;;;;;12.74;91.18;100602.59;10340610;28;20046;-74
2023/05/12 05:54:24;;;;;;;37.25;23.65;;;;;;;12.81;90.38;100611.00;10335353;28;20543;-73
2023/05/12 05:59:28;;;;;;;37.53;24.05;;;;;;;12.88;90.03;100622.94;10333863;28;20111;-72
2023/05/12 06:04:32;;;;;;;33.00;23.30;;;;;;;12.96;90.72;100620.44;10338676;28;20042;-74
2023/05/12 06:09:35;;;;;;;36.60;24.38;;;;;;;13.22;90.95;100631.66;10332939;28;20057;-74
2023/05/12 06:14:38;;;;;;;15.30;10.20;;;;;;;13.33;89.40;100646.00;10337222;28;20042;-74
2023/05/12 06:19:42;;;;;;;19.23;14.98;;;;;;;13.26;89.83;100643.00;10343088;28;20093;-73
2023/05/12 06:24:45;;;;;;;14.65;11.15;;;;;;;13.49;90.73;100641.00;10339330;28;20035;-74
2023/05/12 06:29:48;;;;;;;14.85;12.18;;;;;;;13.65;90.68;100651.28;10340398;28;20084;-76
2023/05/12 06:34:52;;;;;;;23.08;16.85;;;;;;;13.79;89.60;100650.88;10353601;28;20046;-74
2023/05/12 06:39:55;;;;;;;17.27;11.88;;;;;;;13.77;90.09;100644.78;10277546;28;20054;-73
2023/05/12 06:45:00;;;;;;;18.13;12.65;;;;;;;14.08;90.29;100647.38;10283192;28;20166;-73
2023/05/12 06:50:05;;;;;;;22.50;16.52;;;;;;;14.21;89.33;100647.13;10267674;28;20053;-74
2023/05/12 06:55:09;;;;;;;17.75;14.27;;;;;;;14.25;88.55;100645.81;10264767;28;20050;-76
2023/05/12 07:00:13;;;;;;;17.98;14.18;;;;;;;14.50;87.31;100652.53;10266706;28;20058;-74
2023/05/12 07:05:18;;;;;;;18.92;14.93;;;;;;;14.81;88.76;100653.22;10266849;28;20050;-74
2023/05/12 07:10:21;;;;;;;19.52;13.60;;;;;;;15.08;87.49;100656.97;10268265;28;20085;-74
2023/05/12 07:15:24;;;;;;;17.85;13.95;;;;;;;15.19;87.67;100645.97;10263861;28;20051;-74
2023/05/12 07:20:28;;;;;;;17.67;14.23;;;;;;;15.54;85.05;100642.56;10270712;28;20039;-75
2023/05/12 07:25:31;;;;;;;21.00;16.98;;;;;;;15.88;85.74;100652.81;10280757;28;20054;-74
2023/05/12 07:30:34;;;;;;;20.15;15.80;;;;;;;16.17;85.36;100649.03;10263154;28;21590;-74
2023/05/12 07:35:38;;;;;;;16.90;13.85;;;;;;;16.49;85.33;100645.78;10263577;28;20085;-74
2023/05/12 07:40:41;;;;;;;16.48;14.25;;;;;;;16.63;82.96;100647.09;10266748;28;20121;-75
2023/05/12 07:45:45;;;;;;;8.93;8.07;;;;;;;17.06;81.12;100646.22;10267878;28;20411;-74
2023/05/12 07:50:49;;;;;;;9.52;7.13;;;;;;;17.34;79.80;100648.75;10265646;28;20133;-74
2023/05/12 07:55:52;;;;;;;8.55;7.32;;;;;;;17.67;78.73;100642.44;10264684;28;20049;-74
2023/05/12 08:00:57;;;;;;;8.30;6.05;;;;;;;18.04;76.95;100643.91;10301333;28;20050;-74
2023/05/12 08:06:02;;;;;;;6.53;5.97;;;;;;;18.46;77.91;100645.69;10304688;28;20420;-74
2023/05/12 08:11:05;;;;;;;4.97;4.47;;;;;;;18.50;70.63;100635.31;10303640;28;20050;-75
2023/05/12 08:16:08;;;;;;;7.50;6.22;;;;;;;18.57;72.41;100645.34;10304018;28;20124;-75
2023/05/12 08:21:12;;;;;;;4.72;3.53;;;;;;;18.67;72.59;100642.44;10300634;28;20091;-74
2023/05/12 08:26:15;;;;;;;4.40;3.90;;;;;;;18.58;71.59;100640.75;10298935;28;20196;-74
2023/05/12 08:31:19;;;;;;;8.48;4.85;;;;;;;18.89;75.06;100634.63;10297165;28;20251;-75
2023/05/12 08:36:23;;;;;;;6.60;4.55;;;;;;;19.11;74.81;100638.47;10299423;28;20056;-74
2023/05/12 08:41:36;;;;;;;4.90;4.50;;;;;;;19.20;70.93;100635.59;10296272;28;21409;-74
2023/05/12 08:46:40;;;;;;;4.22;3.92;;;;;;;19.44;74.65;100641.94;10297435;28;20046;-75
2023/05/12 08:51:47;;;;;;;4.45;4.05;;;;;;;19.52;72.06;100641.91;10297616;28;20042;-74
2023/05/12 08:57:01;;;;;;;5.65;4.32;;;;;;;19.45;70.92;100649.97;10292938;28;20050;-73
2023/05/12 09:02:10;;;;;;;6.00;4.93;;;;;;;20.02;68.23;100646.13;10314237;28;20038;-75
2023/05/12 09:07:15;;;;;;;9.25;4.93;;;;;;;20.69;69.26;100631.81;10294612;28;20039;-75
2023/05/12 09:12:20;;;;;;;6.28;4.57;;;;;;;20.90;64.23;100622.94;10294298;28;20069;-75
2023/05/12 09:17:23;;;;;;;5.53;5.03;;;;;;;21.21;62.81;100628.25;10291751;28;20093;-74
2023/05/12 09:22:30;;;;;;;7.65;5.32;;;;;;;21.19;60.44;100634.94;10291838;28;21186;-75
2023/05/12 09:27:33;;;;;;;8.93;4.55;;;;;;;21.60;61.02;100632.53;10289736;28;21167;-75
2023/05/12 09:32:36;;;;;;;7.47;5.88;;;;;;;21.76;61.23;100631.50;10294679;28;20485;-74
2023/05/12 09:37:40;;;;;;;5.72;5.22;;;;;;;22.40;60.71;100638.06;10289459;28;20054;-77
2023/05/12 09:42:43;;;;;;;4.47;4.05;;;;;;;22.72;50.98;100631.25;10288980;28;20664;-77
2023/05/12 09:47:46;;;;;;;6.68;4.15;;;;;;;22.85;54.44;100631.34;10298646;28;20165;-75
2023/05/12 09:52:51;;;;;;;5.93;4.07;;;;;;;22.47;51.78;100637.13;10300108;28;20702;-77
2023/05/12 09:57:55;;;;;;;5.15;4.65;;;;;;;22.13;48.91;100637.81;10298012;28;20042;-76
2023/05/12 10:02:58;;;;;;;5.15;4.55;;;;;;;22.48;54.39;100640.72;10292655;28;20421;-76
2023/05/12 10:08:06;;;;;;;7.68;4.53;;;;;;;22.59;50.05;100645.66;10296500;28;20052;-76
2023/05/12 10:13:13;;;;;;;5.00;4.30;;;;;;;23.10;52.26;100639.94;10294273;28;20069;-77
2023/05/12 10:18:16;;;;;;;6.60;4.63;;;;;;;23.19;47.46;100643.41;10299477;28;21158;-76
2023/05/12 10:23:21;;;;;;;4.78;4.38;;;;;;;22.75;45.45;100645.38;10305090;28;20413;-74
2023/05/12 10:28:24;;;;;;;5.13;4.43;;;;;;;22.73;45.45;100641.97;10301296;28;20056;-75
2023/05/12 10:33:26;;;;;;;6.57;4.85;;;;;;;22.75;45.42;100633.56;10304912;28;20157;-75
2023/05/12 10:38:36;;;;;;;7.20;5.68;;;;;;;23.27;45.65;100631.44;10302032;28;20460;-75
2023/05/12 10:43:41;;;;;;;8.18;5.63;;;;;;;24.04;46.90;100638.53;10304112;28;20050;-73
2023/05/12 10:48:54;;;;;;;7.18;5.53;;;;;;;23.98;46.43;100634.72;10305846;28;20421;-76
2023/05/12 10:53:59;;;;;;;6.63;6.00;;;;;;;24.23;45.68;100642.38;10304621;28;20049;-76
2023/05/12 10:59:07;;;;;;;6.70;5.55;;;;;;;24.45;50.48;100640.31;10307016;28;20077;-75
2023/05/12 11:04:15;;;;;;;6.85;6.15;;;;;;;24.49;42.82;100633.34;10304865;28;20104;-75
2023/05/12 11:09:20;;;;;;;7.35;6.10;;;;;;;23.84;45.73;100630.25;10301304;28;20192;-74
2023/05/12 11:14:24;;;;;;;7.90;5.45;;;;;;;24.04;43.71;100633.03;10303513;28;20046;-75
2023/05/12 11:19:27;;;;;;;6.95;5.10;;;;;;;24.40;41.86;100629.13;10306081;28;20122;-76
2023/05/12 11:24:32;;;;;;;7.95;4.45;;;;;;;24.89;40.58;100619.59;10302738;28;20066;-75
2023/05/12 11:29:34;;;;;;;4.72;3.95;;;;;;;25.71;42.31;100625.56;10317769;28;20053;-75
2023/05/12 11:34:38;;;;;;;9.63;4.38;;;;;;;25.98;39.02;100623.53;10308234;28;20050;-76
2023/05/12 11:39:42;;;;;;;7.38;4.07;;;;;;;25.91;39.13;100626.28;10306787;28;20045;-75
2023/05/12 11:44:49;;;;;;;6.40;4.18;;;;;;;25.59;36.87;100631.72;10306487;28;20529;-74
2023/05/12 11:49:53;;;;;;;4.68;3.50;;;;;;;24.94;34.67;100630.81;10311487;28;20050;-75
2023/05/12 11:55:00;;;;;;;6.22;3.50;;;;;;;25.53;33.38;100629.81;10306007;28;20119;-74
2023/05/12 12:00:05;;;;;;;7.10;4.10;;;;;;;25.46;32.81;100625.44;10309522;28;20044;-75
2023/05/12 12:05:16;;;;;;;6.00;3.83;;;;;;;24.81;34.63;100637.16;10308944;28;20050;-75
2023/05/12 12:10:21;;;;;;;5.07;3.63;;;;;;;25.02;33.80;100636.06;10303725;28;20043;-74
2023/05/12 12:15:24;;;;;;;4.18;3.78;;;;;;;23.26;34.18;100633.34;10303588;28;21318;-74
2023/05/12 12:20:27;;;;;;;6.47;3.70;;;;;;;24.37;34.35;100635.84;10300386;28;20050;-74
2023/05/12 12:25:31;;;;;;;5.85;3.90;;;;;;;24.65;33.19;100635.66;10301543;28;20275;-75
2023/05/12 12:30:34;;;;;;;9.75;3.83;;;;;;;25.69;32.37;100627.69;10303046;28;20498;-75
2023/05/12 12:35:37;;;;;;;7.97;3.70;;;;;;;26.11;32.52;100630.84;10295788;28;21280;-74
2023/05/12 12:40:42;;;;;;;4.40;3.65;;;;;;;25.82;30.83;100627.63;10299689;28;20096;-74
2023/05/12 12:45:44;;;;;;;8.35;3.85;;;;;;;24.54;33.02;100633.56;10298788;28;20074;-74
2023/05/12 12:50:47;;;;;;;6.53;4.45;;;;;;;24.93;33.14;100621.72;10299276;28;20752;-75
2023/05/12 12:55:51;;;;;;;4.90;3.85;;;;;;;25.46;30.50;100611.69;10316485;28;20054;-74
2023/05/12 13:00:54;;;;;;;5.32;3.70;;;;;;;23.83;33.12;100629.41;10302229;28;20049;-74
2023/05/12 13:05:57;;;;;;;5.75;3.75;;;;;;;23.08;34.56;100639.28;10301353;28;20468;-74
2023/05/12 13:11:01;;;;;;;4.47;3.72;;;;;;;24.50;33.14;100635.88;10302554;28;20528;-73
2023/05/12 13:16:05;;;;;;;7.40;3.75;;;;;;;26.34;31.81;100624.81;10301121;28;20058;-74
2023/05/12 13:21:08;;;;;;;6.22;3.75;;;;;;;27.19;31.36;100622.34;10301102;28;20045;-73
2023/05/12 13:26:12;;;;;;;5.78;3.33;;;;;;;26.49;29.33;100625.31;10301002;28;20049;-74
2023/05/12 13:31:17;;;;;;;2.85;2.65;;;;;;;27.16;27.54;100614.53;10298190;28;20045;-73
2023/05/12 13:36:20;;;;;;;3.03;2.72;;;;;;;26.53;27.14;100618.28;10307634;28;20053;-73
2023/05/12 13:41:24;;;;;;;11.05;4.35;;;;;;;26.55;28.05;100621.69;10304784;28;20452;-73
2023/05/12 13:46:26;;;;;;;3.53;3.22;;;;;;;26.46;26.96;100614.75;10309144;28;20096;-74
2023/05/12 13:51:31;;;;;;;3.13;2.88;;;;;;;25.73;28.61;100615.19;10308591;28;20070;-75
2023/05/12 13:56:36;;;;;;;6.95;2.83;;;;;;;24.79;29.18;100613.69;10312888;28;20137;-72
2023/05/12 14:01:39;;;;;;;5.45;3.42;;;;;;;24.30;30.86;100608.41;10312645;28;21857;-72
2023/05/12 14:06:42;;;;;;;5.28;3.42;;;;;;;24.80;31.77;100609.91;10311679;28;20531;-73
2023/05/12 14:11:46;;;;;;;7.20;4.55;;;;;;;25.13;31.27;100607.13;10301847;28;20766;-72
2023/05/12 14:16:49;;;;;;;5.80;3.95;;;;;;;25.50;31.11;100610.16;10304017;28;20149;-73
2023/05/12 14:21:52;;;;;;;5.72;3.90;;;;;;;26.63;30.15;100593.84;10298946;28;20054;-73
2023/05/12 14:26:56;;;;;;;7.28;4.20;;;;;;;26.61;30.17;100595.13;10304711;28;20046;-73
2023/05/12 14:32:01;;;;;;;4.95;3.85;;;;;;;26.26;29.69;100607.47;10308038;28;20045;-74
2023/05/12 14:37:05;;;;;;;5.57;3.78;;;;;;;26.12;29.70;100611.38;10309242;28;20046;-74
2023/05/12 14:42:09;;;;;;;7.97;4.85;;;;;;;25.86;30.01;100615.09;10305149;28;20054;-73
2023/05/12 14:47:12;;;;;;;6.50;4.40;;;;;;;25.90;30.71;100621.03;10304963;28;20128;-75
2023/05/12 14:52:15;;;;;;;6.85;4.63;;;;;;;26.07;30.86;100611.19;10304685;28;20068;-73
2023/05/12 14:57:20;;;;;;;6.30;4.10;;;;;;;26.15;30.41;100610.91;10301040;28;20699;-73
2023/05/12 15:02:23;;;;;;;5.20;4.30;;;;;;;26.93;30.51;100605.03;10311252;28;20185;-74
2023/05/12 15:07:26;;;;;;;6.40;4.10;;;;;;;27.63;30.13;100612.09;10306332;28;20783;-73
2023/05/12 15:12:31;;;;;;;4.15;3.85;;;;;;;27.70;29.46;100609.25;10303151;28;20042;-73
2023/05/12 15:17:34;;;;;;;4.60;3.92;;;;;;;25.42;30.07;100608.50;10303422;28;20465;-74
2023/05/12 15:22:36;;;;;;;4.82;4.10;;;;;;;24.91;31.33;100603.75;10302824;28;20042;-73
2023/05/12 15:27:41;;;;;;;9.23;4.07;;;;;;;26.65;30.27;100601.88;10304965;28;20046;-73
2023/05/12 15:32:44;;;;;;;5.07;3.72;;;;;;;26.59;29.47;100600.03;10308060;28;20043;-74
2023/05/12 15:37:46;;;;;;;6.72;3.80;;;;;;;25.89;30.50;100605.56;10303042;28;20061;-73
2023/05/12 15:42:51;;;;;;;5.57;3.40;;;;;;;24.24;31.56;100622.94;10310073;28;20049;-74
2023/05/12 15:47:55;;;;;;;4.13;3.67;;;;;;;23.53;32.24;100623.34;10314275;28;20056;-75
2023/05/12 15:52:58;;;;;;;7.85;3.60;;;;;;;22.91;33.01;100625.06;10308987;28;20046;-74
2023/05/12 15:58:03;;;;;;;5.63;4.55;;;;;;;23.05;32.96;100617.78;10297845;28;20051;-73
2023/05/12 16:03:06;;;;;;;4.30;3.90;;;;;;;23.81;32.92;100622.44;10296004;28;20049;-76
2023/05/12 16:08:09;;;;;;;7.22;3.85;;;;;;;24.00;32.81;100610.66;10266516;28;20049;-74
2023/05/12 16:13:13;;;;;;;6.15;3.65;;;;;;;24.56;32.30;100612.22;10212910;28;20046;-74
2023/05/12 16:18:16;;;;;;;7.30;3.65;;;;;;;24.89;28.96;100614.09;10280045;28;20058;-74
2023/05/12 16:23:19;;;;;;;5.78;3.55;;;;;;;24.94;28.51;100608.81;10290583;28;20053;-74
2023/05/12 16:28:23;;;;;;;4.38;3.17;;;;;;;24.59;28.92;100599.97;10293433;28;20050;-74
2023/05/12 16:33:26;;;;;;;6.22;3.33;;;;;;;25.16;29.59;100604.78;10295386;28;20497;-72
2023/05/12 16:38:31;;;;;;;6.85;3.28;;;;;;;25.54;29.13;100600.44;10293616;28;20057;-78
2023/05/12 16:43:36;;;;;;;7.28;3.20;;;;;;;25.90;28.52;100599.84;10297209;28;20096;-73
2023/05/12 16:48:39;;;;;;;4.07;3.00;;;;;;;25.63;28.62;100599.13;10296565;28;20131;-73
2023/05/12 16:53:42;;;;;;;5.20;3.72;;;;;;;27.58;26.22;100593.47;10291272;28;20526;-73
2023/05/12 16:58:46;;;;;;;3.88;3.38;;;;;;;31.33;23.03;100584.53;10285277;28;20559;-71
2023/05/12 17:03:49;;;;;;;4.75;3.60;;;;;;;32.89;20.73;100597.78;10293920;28;20100;-74
2023/05/12 17:08:52;;;;;;;5.60;2.95;;;;;;;33.53;21.21;100586.41;10295384;28;20469;-72
2023/05/12 17:19:34;;;;;;;3.40;3.10;;;;;;;33.32;19.68;100593.88;10566869;23;20061;-73
2023/05/12 17:24:36;;;;;;;8.27;3.40;;;;;;;32.65;20.59;100598.16;10046795;29;20044;-73
2023/05/12 17:29:39;;;;;;;4.65;3.15;;;;;;;32.15;21.08;100602.13;10050384;29;20393;-73
2023/05/12 17:34:43;;;;;;;4.85;2.60;;;;;;;32.66;20.76;100599.84;10048159;29;20533;-72
2023/05/12 17:39:46;;;;;;;9.40;3.50;;;;;;;29.90;23.35;100604.38;10050976;29;20726;-74
2023/05/12 17:44:49;;;;;;;4.75;2.85;;;;;;;28.94;23.90;100610.31;10049290;29;20046;-74
2023/05/12 17:49:53;;;;;;;3.22;2.92;;;;;;;28.35;24.71;100623.19;10051605;29;20053;-74
2023/05/12 17:54:56;;;;;;;5.05;3.55;;;;;;;27.90;25.46;100629.16;10049804;29;20065;-75
2023/05/12 17:59:59;;;;;;;4.63;4.03;;;;;;;24.97;27.89;100628.47;10051020;29;20067;-74
2023/05/12 18:05:04;;;;;;;6.75;4.80;;;;;;;22.98;31.14;100636.91;10048867;29;20124;-74
2023/05/12 18:10:08;;;;;;;4.97;3.63;;;;;;;22.07;32.63;100650.38;10050410;29;20088;-74
2023/05/12 18:15:11;;;;;;;4.28;3.47;;;;;;;21.51;33.19;100641.88;10048588;29;21843;-74
2023/05/12 18:20:16;;;;;;;9.43;3.38;;;;;;;21.11;33.84;100652.25;10047146;29;20053;-73
2023/05/12 18:25:19;;;;;;;7.90;3.78;;;;;;;20.77;34.12;100653.59;10045518;29;20049;-74
2023/05/12 18:30:22;;;;;;;4.00;3.33;;;;;;;20.51;34.38;100653.97;10050568;29;20148;-75
2023/05/12 18:35:26;;;;;;;6.05;3.50;;;;;;;20.31;35.02;100658.22;10052360;29;20049;-74
2023/05/12 18:40:29;;;;;;;6.22;3.90;;;;;;;20.06;35.34;100661.09;10060290;29;20165;-73
2023/05/12 18:45:32;;;;;;;4.65;3.60;;;;;;;19.88;35.89;100666.84;10059249;29;20067;-74
2023/05/12 18:50:36;;;;;;;4.63;3.42;;;;;;;19.67;36.41;100669.31;10055844;29;20045;-75
2023/05/12 18:55:39;;;;;;;5.32;3.83;;;;;;;19.45;37.30;100681.81;10052923;29;21121;-74
2023/05/12 19:00:42;;;;;;;4.30;3.08;;;;;;;19.20;39.51;100678.31;10055995;29;20100;-74
2023/05/12 19:05:47;;;;;;;8.88;3.53;;;;;;;19.04;40.72;100681.91;10053746;29;20103;-74
2023/05/12 19:10:50;;;;;;;4.90;3.58;;;;;;;18.90;41.21;100683.47;10057156;29;20045;-74
2023/05/12 19:15:53;;;;;;;4.07;3.22;;;;;;;18.71;40.52;100686.50;10055940;29;20501;-74
2023/05/12 19:20:57;;;;;;;6.32;3.40;;;;;;;18.57;40.04;100696.19;10053916;29;20052;-73
2023/05/12 19:26:00;;;;;;;5.57;3.88;;;;;;;18.40;40.49;100698.00;10055243;29;20093;-73
2023/05/12 19:31:03;;;;;;;7.68;3.40;;;;;;;18.26;40.56;100695.97;10054376;29;20053;-74
2023/05/12 19:36:10;;;;;;;5.68;3.33;;;;;;;18.17;41.67;100714.13;10061096;29;20146;-72
2023/05/12 19:41:12;;;;;;;4.47;3.80;;;;;;;17.95;41.92;100704.69;10057189;29;20069;-72
2023/05/12 19:46:15;;;;;;;4.38;3.72;;;;;;;17.72;42.33;100712.59;10055675;29;20053;-73
2023/05/12 19:51:19;;;;;;;4.55;3.63;;;;;;;17.45;43.01;100708.22;10055424;29;20057;-73
2023/05/12 19:56:23;;;;;;;5.75;3.70;;;;;;;17.17;42.99;100730.13;10051296;29;20560;-73
2023/05/12 20:01:25;;;;;;;4.22;3.55;;;;;;;17.15;43.44;100728.56;10053952;29;20128;-73
2023/05/12 20:06:30;;;;;;;7.03;3.75;;;;;;;16.98;43.77;100725.69;10052392;29;20052;-73
2023/05/12 20:11:33;;;;;;;7.15;4.13;;;;;;;16.93;44.45;100735.31;10055684;29;21203;-73
2023/05/12 20:16:37;;;;;;;6.15;4.50;;;;;;;16.84;44.13;100730.81;10055085;29;20057;-73
2023/05/12 20:21:41;;;;;;;6.22;4.70;;;;;;;16.78;44.05;100740.44;10055618;29;21294;-73
2023/05/12 20:26:44;;;;;;;7.10;4.43;;;;;;;16.77;44.25;100738.75;10054868;29;20233;-73
2023/05/12 20:31:47;;;;;;;7.30;5.20;;;;;;;16.72;43.91;100738.34;10051017;29;20733;-73
2023/05/12 20:36:52;;;;;;;9.20;5.28;;;;;;;16.67;44.08;100736.09;10052152;29;20049;-74
2023/05/12 20:41:55;;;;;;;7.13;5.15;;;;;;;16.73;43.91;100737.34;10054369;29;20041;-73
2023/05/12 20:46:58;;;;;;;6.53;5.25;;;;;;;16.65;44.56;100739.97;10052093;29;20049;-72
2023/05/12 20:52:02;;;;;;;8.13;5.60;;;;;;;16.65;44.92;100750.81;10051058;29;20056;-74
2023/05/12 20:57:05;;;;;;;5.95;5.25;;;;;;;16.50;45.39;100750.53;10052349;29;20432;-73
2023/05/12 21:02:09;;;;;;;6.85;5.05;;;;;;;16.38;45.59;100758.03;10053979;29;20059;-73
2023/05/12 21:07:13;;;;;;;7.75;5.10;;;;;;;16.23;46.02;100757.66;10050762;29;20678;-73
2023/05/12 21:12:16;;;;;;;6.90;5.57;;;;;;;16.25;46.17;100752.09;10053844;29;20056;-73
2023/05/12 21:17:19;;;;;;;9.07;5.47;;;;;;;16.21;46.71;100756.97;10051527;29;20101;-74
2023/05/12 21:22:23;;;;;;;6.93;5.82;;;;;;;16.11;46.64;100762.44;10052968;29;20562;-72
2023/05/12 21:27:26;;;;;;;10.73;5.90;;;;;;;16.07;47.00;100763.75;10047278;29;20071;-71
2023/05/12 21:32:29;;;;;;;8.20;5.97;;;;;;;16.08;46.96;100770.03;10051851;29;20769;-73
2023/05/12 21:37:33;;;;;;;12.48;5.72;;;;;;;15.99;47.33;100774.50;10051487;29;20087;-72
2023/05/12 21:42:36;;;;;;;6.78;5.80;;;;;;;15.91;47.29;100777.09;10049824;29;20436;-74
2023/05/12 21:47:39;;;;;;;9.98;6.05;;;;;;;15.78;47.88;100777.44;10060480;29;20188;-73
2023/05/12 21:52:43;;;;;;;11.55;5.75;;;;;;;15.74;48.09;100772.44;10089026;29;20053;-73
2023/05/12 21:57:46;;;;;;;6.53;5.93;;;;;;;15.72;48.27;100777.19;10085146;29;20056;-74
2023/05/12 22:02:50;;;;;;;9.85;5.75;;;;;;;15.62;48.71;100778.06;10084603;29;20048;-72
2023/05/12 22:07:54;;;;;;;10.23;6.20;;;;;;;15.52;49.30;100774.53;10086472;29;20481;-73
2023/05/12 22:12:57;;;;;;;11.48;6.10;;;;;;;15.49;49.08;100777.53;10091975;29;20057;-73
2023/05/12 22:18:00;;;;;;;9.55;5.90;;;;;;;15.34;49.98;100776.25;10094930;29;20080;-73
2023/05/12 22:23:04;;;;;;;12.05;6.15;;;;;;;15.34;49.18;100779.84;10094906;29;20453;-72
2023/05/12 22:28:07;;;;;;;7.13;6.15;;;;;;;15.35;49.50;100791.53;10091759;29;20116;-72
2023/05/12 22:33:10;;;;;;;8.55;6.30;;;;;;;14.97;50.13;100798.66;10094652;29;20115;-73
2023/05/12 22:38:14;;;;;;;10.32;6.53;;;;;;;14.91;50.68;100796.53;10094520;29;20120;-73
2023/05/12 22:43:17;;;;;;;8.25;6.85;;;;;;;14.91;50.21;100799.22;10100559;29;20135;-73
2023/05/12 22:48:19;;;;;;;8.30;7.20;;;;;;;14.81;50.78;100794.69;10094047;29;20048;-71
2023/05/12 22:53:23;;;;;;;7.50;5.75;;;;;;;14.58;51.52;100795.94;10093917;29;20108;-72
2023/05/12 22:58:26;;;;;;;11.25;6.80;;;;;;;14.47;51.31;100799.63;10094174;29;20122;-73
2023/05/12 23:03:29;;;;;;;8.50;6.32;;;;;;;14.52;51.18;100800.06;10094477;29;20128;-73
2023/05/12 23:08:33;;;;;;;7.95;5.95;;;;;;;14.56;51.05;100804.22;10092093;29;20072;-72
2023/05/12 23:13:36;;;;;;;7.53;6.20;;;;;;;14.60;50.65;100797.50;10093231;29;20052;-72